Time;durP1;ratioP1;P1;durP2;ratioP2;P2;SDS_P1;SDS_P2;PMS_P1;PMS_P2;Temp;Humidity;BMP_temperature;BMP_pressure;BME280_temperature;BME280_humidity;BME280_pressure;Samples;Min_cycle;Max_cycle;Signal;HPM_P1;HPM_P2
2023/11/04 00:01:39;;;;;;;0.10;0.10;;;;;;;9.80;74.03;97236.69;7365380;19;20035;-57
2023/11/04 00:04:04;;;;;;;0.10;0.10;;;;;;;9.84;74.42;97231.13;7373527;19;20002;-56
2023/11/04 00:06:30;;;;;;;0.10;0.10;;;;;;;9.87;74.26;97232.66;7370927;19;20101;-58
2023/11/04 00:08:55;;;;;;;0.10;0.10;;;;;;;9.88;74.41;97235.16;7365202;19;20022;-56
2023/11/04 00:11:22;;;;;;;0.10;0.10;;;;;;;9.91;74.42;97239.31;7365743;19;20119;-56
2023/11/04 00:13:47;;;;;;;0.10;0.10;;;;;;;9.95;74.16;97229.50;7348368;19;20003;-58
2023/11/04 00:16:13;;;;;;;0.00;0.00;;;;;;;9.97;74.26;97212.78;7361215;19;20022;-59
2023/11/04 00:18:38;;;;;;;0.10;0.10;;;;;;;10.00;74.14;97207.34;7362817;19;20006;-57
2023/11/04 00:21:07;;;;;;;0.10;0.10;;;;;;;9.99;74.09;97192.66;7354842;19;20588;-57
2023/11/04 00:23:33;;;;;;;0.10;0.10;;;;;;;10.04;74.11;97187.91;7362250;19;20014;-58
2023/11/04 00:25:58;;;;;;;0.10;0.10;;;;;;;10.03;74.27;97181.03;7356507;19;20112;-58
2023/11/04 00:28:23;;;;;;;0.00;0.00;;;;;;;9.99;74.34;97169.19;7357861;19;20017;-58
2023/11/04 00:30:49;;;;;;;0.03;0.03;;;;;;;10.12;74.48;97177.72;7359560;19;20032;-58
2023/11/04 00:33:16;;;;;;;0.00;0.00;;;;;;;10.14;74.40;97169.78;7362621;19;20006;-56
2023/11/04 00:35:42;;;;;;;0.10;0.10;;;;;;;10.19;74.29;97167.66;7359765;19;20010;-58
2023/11/04 00:38:08;;;;;;;0.10;0.10;;;;;;;10.21;74.01;97163.16;7359248;19;20013;-58
2023/11/04 00:40:35;;;;;;;0.10;0.10;;;;;;;10.23;74.41;97152.59;7362538;19;20006;-57
2023/11/04 00:43:01;;;;;;;0.00;0.00;;;;;;;10.24;74.29;97144.69;7363891;19;20011;-57
2023/11/04 00:45:27;;;;;;;0.00;0.00;;;;;;;10.26;74.04;97141.97;7354749;19;20474;-58
2023/11/04 00:47:52;;;;;;;0.08;0.08;;;;;;;10.26;74.25;97126.31;7360184;19;20023;-57
2023/11/04 00:50:18;;;;;;;0.10;0.10;;;;;;;10.25;73.78;97114.22;7360740;19;20007;-58
2023/11/04 00:52:43;;;;;;;0.10;0.10;;;;;;;10.24;74.00;97107.34;7351957;19;20078;-58
2023/11/04 00:55:08;;;;;;;0.05;0.05;;;;;;;10.22;73.78;97096.19;7362048;19;20581;-57
2023/11/04 00:57:34;;;;;;;0.10;0.10;;;;;;;10.18;73.84;97090.38;7358477;19;20010;-57
2023/11/04 01:00:00;;;;;;;0.10;0.10;;;;;;;10.13;74.09;97082.09;7361999;19;20010;-58
2023/11/04 01:02:25;;;;;;;0.10;0.10;;;;;;;10.10;74.03;97072.75;7357980;19;20686;-58
2023/11/04 01:04:50;;;;;;;0.10;0.10;;;;;;;10.09;74.11;97070.25;7356423;19;20535;-58
2023/11/04 01:07:16;;;;;;;0.10;0.10;;;;;;;10.05;73.87;97067.06;7363795;19;20005;-58
2023/11/04 01:09:41;;;;;;;0.10;0.10;;;;;;;10.02;74.10;97059.47;7361771;19;20353;-56
2023/11/04 01:12:07;;;;;;;0.00;0.00;;;;;;;9.96;74.46;97059.97;7358880;19;20796;-57
2023/11/04 01:14:34;;;;;;;0.03;0.03;;;;;;;9.91;74.44;97054.28;7359576;19;20006;-57
2023/11/04 01:16:59;;;;;;;0.10;0.10;;;;;;;9.94;74.55;97061.88;7358573;19;21109;-58
2023/11/04 01:19:24;;;;;;;0.10;0.10;;;;;;;9.92;74.19;97049.88;7360370;19;20007;-57
2023/11/04 01:21:50;;;;;;;0.00;0.00;;;;;;;9.89;74.39;97040.53;7360800;19;20451;-57
2023/11/04 01:24:15;;;;;;;0.00;0.00;;;;;;;9.86;74.54;97030.34;7360962;19;19995;-57
2023/11/04 01:26:41;;;;;;;0.10;0.10;;;;;;;9.83;74.53;97028.84;7360298;19;20021;-57
2023/11/04 01:29:10;;;;;;;0.10;0.10;;;;;;;9.77;74.84;97018.03;7358059;19;19998;-57
2023/11/04 01:31:35;;;;;;;0.10;0.10;;;;;;;9.68;74.73;97000.50;7358302;19;20082;-58
2023/11/04 01:34:01;;;;;;;0.10;0.10;;;;;;;9.76;74.57;97011.19;7357901;19;20823;-57
2023/11/04 01:36:27;;;;;;;0.10;0.10;;;;;;;9.74;74.94;97000.06;7361503;19;20006;-58
2023/11/04 01:38:52;;;;;;;0.10;0.10;;;;;;;9.67;75.16;96985.84;7361710;19;20479;-57
2023/11/04 01:41:18;;;;;;;0.10;0.10;;;;;;;9.71;74.66;96992.47;7359228;19;20005;-59
2023/11/04 01:43:43;;;;;;;0.00;0.00;;;;;;;9.69;75.10;96994.38;7358030;19;20812;-58
2023/11/04 01:46:11;;;;;;;0.10;0.10;;;;;;;9.67;74.75;96980.63;7356018;19;19994;-57
2023/11/04 01:48:41;;;;;;;0.10;0.10;;;;;;;9.64;74.77;96970.47;7362879;19;20010;-58
2023/11/04 01:51:07;;;;;;;0.08;0.08;;;;;;;9.54;75.03;96950.34;7357491;19;20017;-58
2023/11/04 01:53:33;;;;;;;0.10;0.10;;;;;;;9.53;74.85;96959.13;7364786;19;20018;-58
2023/11/04 01:56:00;;;;;;;0.10;0.10;;;;;;;9.58;74.68;96958.75;7360567;19;20813;-57
2023/11/04 01:58:28;;;;;;;0.10;0.10;;;;;;;9.56;74.90;96953.66;7356151;19;20023;-57
2023/11/04 02:00:54;;;;;;;0.10;0.10;;;;;;;9.56;75.26;96947.63;7358267;19;20542;-58
2023/11/04 02:03:19;;;;;;;0.10;0.10;;;;;;;9.51;75.32;96937.56;7360398;19;20011;-58
2023/11/04 02:05:45;;;;;;;0.10;0.10;;;;;;;9.54;74.90;96939.94;7361734;19;20010;-58
2023/11/04 02:08:10;;;;;;;0.00;0.00;;;;;;;9.53;74.82;96933.06;7358781;19;20132;-57
2023/11/04 02:10:36;;;;;;;0.00;0.00;;;;;;;9.43;75.18;96916.50;7362004;19;20011;-57
2023/11/04 02:13:02;;;;;;;0.10;0.10;;;;;;;9.50;75.30;96933.31;7331997;19;20007;-57
2023/11/04 02:15:27;;;;;;;0.08;0.08;;;;;;;9.48;75.04;96924.78;7357793;19;20033;-58
2023/11/04 02:17:53;;;;;;;0.10;0.10;;;;;;;9.46;75.30;96911.03;7361670;19;20367;-58
2023/11/04 02:20:20;;;;;;;0.00;0.00;;;;;;;9.41;75.27;96905.38;7361078;19;20014;-57
2023/11/04 02:22:45;;;;;;;0.10;0.10;;;;;;;9.42;75.34;96904.41;7361591;19;20021;-58
2023/11/04 02:25:11;;;;;;;0.00;0.00;;;;;;;9.40;75.00;96893.31;7363062;19;20006;-59
2023/11/04 02:27:37;;;;;;;0.05;0.05;;;;;;;9.41;75.00;96894.13;7361088;19;20418;-57
2023/11/04 02:30:03;;;;;;;0.10;0.10;;;;;;;9.39;75.30;96883.84;7368772;19;20006;-58
2023/11/04 02:32:30;;;;;;;0.08;0.08;;;;;;;9.38;75.21;96871.78;7361202;19;20906;-57
2023/11/04 02:34:56;;;;;;;0.00;0.00;;;;;;;9.37;75.14;96875.31;7361241;19;20011;-58
2023/11/04 02:37:21;;;;;;;0.10;0.10;;;;;;;9.34;75.50;96859.94;7361228;19;20010;-58
2023/11/04 02:39:46;;;;;;;0.10;0.10;;;;;;;9.36;75.26;96852.84;7361865;19;20048;-57
2023/11/04 02:42:12;;;;;;;0.10;0.10;;;;;;;9.23;75.30;96820.94;7355188;19;20082;-58
2023/11/04 02:44:37;;;;;;;0.00;0.00;;;;;;;9.27;75.50;96822.31;7360082;19;20018;-56
2023/11/04 02:47:03;;;;;;;0.08;0.08;;;;;;;9.34;75.30;96834.75;7360768;19;20032;-58
2023/11/04 02:49:29;;;;;;;0.10;0.10;;;;;;;9.36;75.36;96826.78;7362215;19;20070;-58
2023/11/04 02:51:54;;;;;;;0.10;0.10;;;;;;;9.34;75.16;96813.09;7358084;19;20011;-58
2023/11/04 02:54:19;;;;;;;0.10;0.10;;;;;;;9.39;75.67;96821.34;7352738;19;20034;-58
2023/11/04 02:56:45;;;;;;;0.10;0.10;;;;;;;9.38;75.27;96806.69;7362429;19;20028;-58
2023/11/04 02:59:10;;;;;;;0.10;0.10;;;;;;;9.39;75.46;96804.91;7350826;19;20042;-57
2023/11/04 03:01:36;;;;;;;0.10;0.10;;;;;;;9.26;75.46;96768.59;7361244;19;20448;-57
2023/11/04 03:04:02;;;;;;;0.10;0.10;;;;;;;9.43;75.51;96786.31;7363832;19;20011;-58
2023/11/04 03:06:28;;;;;;;0.10;0.10;;;;;;;9.40;75.69;96768.31;7353142;19;20619;-58
2023/11/04 03:08:53;;;;;;;0.10;0.10;;;;;;;9.42;75.14;96750.78;7361583;19;20034;-58
2023/11/04 03:11:19;;;;;;;0.10;0.10;;;;;;;9.43;75.35;96739.44;7362663;19;20375;-58
2023/11/04 03:13:45;;;;;;;0.00;0.00;;;;;;;9.44;75.57;96741.09;7360355;19;20066;-58
2023/11/04 03:16:19;;;;;;;0.00;0.00;;;;;;;9.46;75.12;96733.97;7353296;19;20006;-56
2023/11/04 03:18:45;;;;;;;0.10;0.10;;;;;;;9.31;75.26;96714.38;7363222;19;20017;-57
2023/11/04 03:21:11;;;;;;;0.10;0.10;;;;;;;9.41;75.42;96720.50;7355754;19;20710;-58
2023/11/04 03:23:36;;;;;;;0.10;0.10;;;;;;;9.44;75.52;96716.84;7360920;19;20006;-59
2023/11/04 03:26:01;;;;;;;0.10;0.10;;;;;;;9.44;75.23;96714.22;7361255;19;20002;-57
2023/11/04 03:28:27;;;;;;;0.05;0.05;;;;;;;9.41;75.44;96699.66;7361122;19;20361;-57
2023/11/04 03:30:52;;;;;;;0.10;0.10;;;;;;;9.43;75.48;96687.38;7361423;19;20007;-58
2023/11/04 03:33:17;;;;;;;0.10;0.10;;;;;;;9.40;75.42;96686.78;7361872;19;20006;-59
2023/11/04 03:35:44;;;;;;;0.10;0.10;;;;;;;9.44;75.45;96670.78;7358608;19;20443;-58
2023/11/04 03:38:10;;;;;;;0.00;0.00;;;;;;;9.44;75.57;96662.97;7358479;19;20569;-57
2023/11/04 03:40:36;;;;;;;0.10;0.10;;;;;;;9.33;75.71;96642.22;7359853;19;20021;-58
2023/11/04 03:43:01;;;;;;;0.10;0.10;;;;;;;9.45;75.30;96654.22;7356087;19;20002;-58
2023/11/04 03:45:27;;;;;;;0.10;0.10;;;;;;;9.44;75.64;96649.97;7361271;19;20021;-56
2023/11/04 03:47:52;;;;;;;0.10;0.10;;;;;;;9.42;75.61;96644.03;7362649;19;20030;-57
2023/11/04 03:50:17;;;;;;;0.08;0.08;;;;;;;9.28;75.66;96618.34;7359781;19;20086;-58
2023/11/04 03:52:43;;;;;;;0.10;0.10;;;;;;;9.45;75.59;96632.56;7363386;19;20746;-57
2023/11/04 03:55:09;;;;;;;0.10;0.10;;;;;;;9.46;75.56;96629.81;7310035;19;20021;-57
2023/11/04 03:57:34;;;;;;;0.10;0.10;;;;;;;9.44;75.83;96610.91;7360646;19;20019;-57
2023/11/04 04:00:00;;;;;;;0.10;0.10;;;;;;;9.46;75.82;96603.78;7358123;19;20366;-58
2023/11/04 04:02:25;;;;;;;0.10;0.10;;;;;;;9.40;75.67;96599.09;7357679;19;20011;-57
2023/11/04 04:04:51;;;;;;;0.10;0.10;;;;;;;9.47;75.35;96595.00;7363484;19;20027;-56
2023/11/04 04:07:16;;;;;;;0.00;0.00;;;;;;;9.49;75.66;96592.28;7353929;19;20432;-58
2023/11/04 04:09:42;;;;;;;0.10;0.10;;;;;;;9.49;75.41;96585.31;7359162;19;20019;-58
2023/11/04 04:12:08;;;;;;;0.10;0.10;;;;;;;9.50;75.44;96586.94;7350717;19;20070;-57
2023/11/04 04:14:36;;;;;;;0.10;0.10;;;;;;;9.46;75.61;96567.31;7357482;19;20370;-58
2023/11/04 04:17:01;;;;;;;0.10;0.10;;;;;;;9.52;75.35;96577.22;7361338;19;20074;-57
2023/11/04 04:19:27;;;;;;;0.10;0.10;;;;;;;9.33;75.30;96540.69;7329912;19;20010;-56
2023/11/04 04:21:52;;;;;;;0.00;0.00;;;;;;;9.53;75.55;96571.06;7359900;19;20117;-57
2023/11/04 04:24:18;;;;;;;0.10;0.10;;;;;;;9.54;75.41;96564.91;7356016;19;20017;-57
2023/11/04 04:26:43;;;;;;;0.00;0.00;;;;;;;9.55;75.35;96556.13;7358580;19;20018;-58
2023/11/04 04:29:09;;;;;;;0.10;0.10;;;;;;;9.53;75.32;96547.63;7366934;19;20086;-58
2023/11/04 04:31:34;;;;;;;0.10;0.10;;;;;;;9.56;75.83;96536.13;7368036;19;20010;-56
2023/11/04 04:34:00;;;;;;;0.00;0.00;;;;;;;9.57;75.82;96535.97;7361787;19;20006;-59
2023/11/04 04:36:25;;;;;;;0.00;0.00;;;;;;;9.61;75.75;96539.97;7368024;19;20034;-59
2023/11/04 04:38:51;;;;;;;0.10;0.10;;;;;;;9.61;75.61;96523.53;7369833;19;20074;-58
2023/11/04 04:41:16;;;;;;;0.00;0.00;;;;;;;9.65;75.40;96524.09;7371568;19;20014;-58
2023/11/04 04:43:42;;;;;;;0.10;0.10;;;;;;;9.66;75.39;96525.75;7363890;19;20013;-58
2023/11/04 04:46:07;;;;;;;0.08;0.08;;;;;;;9.67;75.33;96519.56;7367461;19;20025;-57
2023/11/04 04:48:33;;;;;;;0.10;0.10;;;;;;;9.69;75.32;96512.47;7364041;19;20461;-58
2023/11/04 04:50:59;;;;;;;0.00;0.00;;;;;;;9.70;75.32;96511.50;7367644;19;20011;-58
2023/11/04 04:53:24;;;;;;;0.03;0.03;;;;;;;9.71;75.24;96503.56;7367731;19;20013;-56
2023/11/04 04:55:49;;;;;;;0.10;0.10;;;;;;;9.73;75.50;96500.81;7364791;19;20013;-56
2023/11/04 04:58:15;;;;;;;0.10;0.10;;;;;;;9.75;75.66;96494.53;7368868;19;20471;-57
2023/11/04 05:00:40;;;;;;;0.10;0.10;;;;;;;9.77;75.51;96491.78;7346882;19;20820;-58
2023/11/04 05:03:06;;;;;;;0.10;0.10;;;;;;;9.78;75.19;96483.00;7366453;19;20021;-57
2023/11/04 05:05:32;;;;;;;0.03;0.03;;;;;;;9.69;75.27;96452.56;7368188;19;20890;-58
2023/11/04 05:07:58;;;;;;;0.10;0.10;;;;;;;9.84;75.60;96466.84;7369800;19;20078;-57
2023/11/04 05:10:24;;;;;;;0.10;0.10;;;;;;;9.86;75.18;96454.50;7367502;19;20548;-57
2023/11/04 05:12:49;;;;;;;0.10;0.10;;;;;;;9.88;75.28;96452.56;7365252;19;20042;-58
2023/11/04 05:15:15;;;;;;;0.10;0.10;;;;;;;9.90;75.30;96445.47;7362213;19;20018;-57
2023/11/04 05:17:40;;;;;;;0.10;0.10;;;;;;;9.88;75.17;96444.75;7366500;19;20006;-58
2023/11/04 05:20:07;;;;;;;0.00;0.00;;;;;;;9.93;75.51;96439.97;7369986;19;20007;-57
2023/11/04 05:22:33;;;;;;;0.10;0.10;;;;;;;9.92;75.13;96435.72;7354761;19;20007;-59
2023/11/04 05:24:58;;;;;;;0.10;0.10;;;;;;;9.96;75.16;96429.28;7367765;19;20015;-56
2023/11/04 05:27:24;;;;;;;0.10;0.10;;;;;;;9.97;75.43;96427.50;7355790;19;20038;-58
2023/11/04 05:29:49;;;;;;;0.10;0.10;;;;;;;9.98;75.32;96429.97;7368823;19;20737;-57
2023/11/04 05:32:16;;;;;;;0.00;0.00;;;;;;;9.98;75.47;96419.53;7360609;19;20489;-56
2023/11/04 05:34:42;;;;;;;0.00;0.00;;;;;;;9.99;75.05;96412.56;7365077;19;20003;-57
2023/11/04 05:37:07;;;;;;;0.08;0.08;;;;;;;9.86;75.11;96378.94;7366796;19;20014;-56
2023/11/04 05:39:33;;;;;;;0.10;0.10;;;;;;;10.02;75.01;96387.03;7361847;19;20302;-57
2023/11/04 05:41:58;;;;;;;0.10;0.10;;;;;;;10.03;75.12;96382.66;7364540;19;20013;-58
2023/11/04 05:44:24;;;;;;;0.10;0.10;;;;;;;10.03;75.08;96378.25;7367294;19;20013;-57
2023/11/04 05:46:49;;;;;;;0.10;0.10;;;;;;;10.04;75.02;96371.28;7365583;19;20006;-57
2023/11/04 05:49:14;;;;;;;0.08;0.08;;;;;;;10.06;75.07;96377.16;7364014;19;20999;-56
2023/11/04 05:51:40;;;;;;;0.10;0.10;;;;;;;9.94;75.23;96357.44;7364873;19;20018;-57
2023/11/04 05:54:05;;;;;;;0.00;0.00;;;;;;;10.06;75.08;96380.59;7360520;19;20018;-56
2023/11/04 05:56:31;;;;;;;0.10;0.10;;;;;;;10.07;75.15;96368.38;7365567;19;20434;-59
2023/11/04 05:58:56;;;;;;;0.10;0.10;;;;;;;10.07;75.44;96358.78;7363835;19;20047;-57
2023/11/04 06:01:23;;;;;;;0.10;0.10;;;;;;;10.09;75.21;96348.25;7355366;19;20035;-58
2023/11/04 06:03:51;;;;;;;0.10;0.10;;;;;;;10.09;75.57;96340.41;7362087;19;20018;-58
2023/11/04 06:06:20;;;;;;;0.03;0.03;;;;;;;10.12;75.57;96340.13;7369918;19;20467;-57
2023/11/04 06:08:46;;;;;;;0.10;0.10;;;;;;;10.05;75.40;96332.03;7374382;19;20458;-57
2023/11/04 06:11:11;;;;;;;0.10;0.10;;;;;;;10.05;75.37;96313.81;7361111;19;20008;-56
2023/11/04 06:13:37;;;;;;;0.10;0.10;;;;;;;10.14;75.46;96323.41;7364513;19;20023;-56
2023/11/04 06:16:02;;;;;;;0.10;0.10;;;;;;;10.17;75.67;96316.25;7360452;19;20054;-57
2023/11/04 06:18:28;;;;;;;0.00;0.00;;;;;;;10.19;75.17;96314.31;7366560;19;20638;-58
2023/11/04 06:20:53;;;;;;;0.10;0.10;;;;;;;10.21;75.58;96304.59;7360222;19;20107;-58
2023/11/04 06:23:19;;;;;;;0.00;0.00;;;;;;;10.14;75.31;96275.66;7366809;19;20009;-58
2023/11/04 06:25:44;;;;;;;0.10;0.10;;;;;;;10.24;75.43;96286.91;7366567;19;20014;-58
2023/11/04 06:28:10;;;;;;;0.08;0.08;;;;;;;10.25;75.52;96285.13;7355874;19;20002;-57
2023/11/04 06:30:35;;;;;;;0.10;0.10;;;;;;;10.27;75.52;96280.59;7364665;19;20034;-58
2023/11/04 06:33:02;;;;;;;0.10;0.10;;;;;;;10.29;75.59;96276.03;7364275;19;20381;-57
2023/11/04 06:35:28;;;;;;;0.10;0.10;;;;;;;10.31;75.18;96272.34;7364566;19;20014;-56
2023/11/04 06:37:54;;;;;;;0.10;0.10;;;;;;;10.28;75.37;96263.97;7360585;19;20770;-58
2023/11/04 06:40:20;;;;;;;0.10;0.10;;;;;;;10.33;75.51;96269.59;7362078;19;20014;-58
2023/11/04 06:42:45;;;;;;;0.10;0.10;;;;;;;10.34;75.13;96263.41;7358876;19;20002;-57
2023/11/04 06:45:11;;;;;;;0.10;0.10;;;;;;;10.37;75.50;96260.53;7362858;19;20086;-56
2023/11/04 06:47:36;;;;;;;0.10;0.10;;;;;;;10.39;75.56;96258.59;7363767;19;20010;-58
2023/11/04 06:50:04;;;;;;;0.10;0.10;;;;;;;10.41;75.52;96258.47;7362337;19;20014;-57
2023/11/04 06:52:30;;;;;;;;;;;;;;;10.47;75.07;96250.88;7364219;19;20082;-57
2023/11/04 06:54:56;;;;;;;0.10;0.10;;;;;;;10.44;75.04;96240.75;7363783;19;19981;-56
2023/11/04 06:57:21;;;;;;;0.10;0.10;;;;;;;10.37;75.11;96231.84;7367832;19;20010;-58
2023/11/04 06:59:47;;;;;;;0.10;0.10;;;;;;;10.43;74.91;96239.09;7359610;19;20003;-58
2023/11/04 07:02:12;;;;;;;0.10;0.10;;;;;;;10.47;75.28;96252.66;7361250;19;20015;-57
2023/11/04 07:04:38;;;;;;;0.10;0.10;;;;;;;10.47;75.19;96255.28;7369335;19;20014;-57
2023/11/04 07:07:04;;;;;;;0.00;0.00;;;;;;;10.48;75.38;96260.34;7361867;19;20025;-58
2023/11/04 07:09:36;;;;;;;0.10;0.10;;;;;;;10.50;75.12;96262.81;7363643;19;20038;-58
2023/11/04 07:12:02;;;;;;;0.10;0.10;;;;;;;10.48;75.78;96275.16;7360390;19;20019;-57
2023/11/04 07:14:27;;;;;;;0.10;0.10;;;;;;;10.45;75.48;96265.03;7359227;19;20011;-55
2023/11/04 07:16:55;;;;;;;0.10;0.10;;;;;;;10.44;75.69;96260.75;7365345;19;20082;-58
2023/11/04 07:19:21;;;;;;;0.10;0.10;;;;;;;10.41;75.57;96264.50;7355066;19;20011;-58
2023/11/04 07:21:46;;;;;;;0.03;0.03;;;;;;;10.37;76.14;96252.69;7359923;19;20021;-58
2023/11/04 07:24:12;;;;;;;0.10;0.10;;;;;;;10.36;75.79;96248.44;7364413;19;20078;-58
2023/11/04 07:26:37;;;;;;;0.10;0.10;;;;;;;10.33;76.12;96243.50;7365762;19;20096;-58
2023/11/04 07:29:03;;;;;;;0.10;0.10;;;;;;;10.30;75.97;96239.41;7360827;19;20035;-57
2023/11/04 07:31:31;;;;;;;0.10;0.10;;;;;;;10.30;76.52;96241.22;7355564;19;20007;-58
2023/11/04 07:33:57;;;;;;;0.10;0.10;;;;;;;10.18;76.22;96218.84;7362585;19;20059;-56
2023/11/04 07:36:24;;;;;;;0.00;0.00;;;;;;;10.22;76.68;96215.00;7357166;19;20014;-57
2023/11/04 07:38:51;;;;;;;0.10;0.10;;;;;;;10.25;76.81;96214.75;7362458;19;20021;-58
2023/11/04 07:41:16;;;;;;;0.05;0.05;;;;;;;10.24;76.62;96213.06;7363385;19;20284;-57
2023/11/04 07:43:41;;;;;;;0.10;0.10;;;;;;;10.24;76.89;96207.88;7358281;19;20477;-58
2023/11/04 07:46:07;;;;;;;0.00;0.00;;;;;;;10.24;76.82;96202.66;7361004;19;20006;-56
2023/11/04 07:48:32;;;;;;;0.10;0.10;;;;;;;10.23;76.72;96195.78;7362906;19;20028;-58
2023/11/04 07:50:57;;;;;;;0.10;0.10;;;;;;;10.24;77.02;96192.22;7361962;19;20003;-57
2023/11/04 07:53:23;;;;;;;0.10;0.10;;;;;;;10.23;76.80;96187.94;7363150;19;20470;-57
2023/11/04 07:55:49;;;;;;;0.10;0.10;;;;;;;10.06;76.81;96164.28;7352725;19;20006;-58
2023/11/04 07:58:14;;;;;;;0.10;0.10;;;;;;;10.19;77.07;96179.63;7353786;19;20021;-57
2023/11/04 08:00:39;;;;;;;0.10;0.10;;;;;;;10.24;77.01;96179.19;7361554;19;20044;-56
2023/11/04 08:03:05;;;;;;;0.10;0.10;;;;;;;10.24;77.05;96166.16;7360034;19;20014;-58
2023/11/04 08:05:30;;;;;;;0.10;0.10;;;;;;;10.21;77.40;96161.22;7368285;19;20013;-58
2023/11/04 08:07:56;;;;;;;0.10;0.10;;;;;;;10.19;77.39;96150.94;7368903;19;20014;-54
2023/11/04 08:10:21;;;;;;;0.10;0.10;;;;;;;10.22;77.44;96149.81;7361369;19;20552;-58
2023/11/04 08:12:46;;;;;;;0.05;0.05;;;;;;;10.28;77.10;96162.31;7367118;19;20755;-56
2023/11/04 08:15:12;;;;;;;0.10;0.10;;;;;;;10.28;77.19;96162.31;7368498;19;20691;-58
2023/11/04 08:17:39;;;;;;;0.10;0.10;;;;;;;10.28;77.33;96162.31;7367909;19;20038;-56
2023/11/04 08:20:08;;;;;;;0.10;0.10;;;;;;;10.15;77.58;96139.16;7362542;19;20010;-58
2023/11/04 08:22:37;;;;;;;0.00;0.00;;;;;;;10.28;77.28;96151.88;7364960;19;20397;-58
2023/11/04 08:25:03;;;;;;;0.10;0.10;;;;;;;10.29;77.44;96148.28;7371657;19;20608;-58
2023/11/04 08:27:29;;;;;;;0.10;0.10;;;;;;;10.30;77.33;96147.34;7364871;19;20041;-57
2023/11/04 08:29:54;;;;;;;0.10;0.10;;;;;;;10.29;77.68;96135.25;7367657;19;20027;-56
2023/11/04 08:32:21;;;;;;;0.10;0.10;;;;;;;10.31;77.74;96147.19;7363397;19;20015;-57
2023/11/04 08:34:46;;;;;;;0.00;0.00;;;;;;;10.31;77.82;96134.16;7367623;19;20828;-57
2023/11/04 08:37:12;;;;;;;0.10;0.10;;;;;;;10.33;77.76;96139.22;7363748;19;19998;-58
2023/11/04 08:39:37;;;;;;;0.10;0.10;;;;;;;10.34;77.94;96135.66;7369009;19;20336;-58
2023/11/04 08:42:03;;;;;;;0.10;0.10;;;;;;;10.34;77.63;96133.03;7367090;19;20014;-58
2023/11/04 08:44:28;;;;;;;0.10;0.10;;;;;;;10.37;77.92;96135.38;7369391;19;20007;-56
2023/11/04 08:46:55;;;;;;;0.00;0.00;;;;;;;10.38;78.00;96137.00;7368215;19;20422;-58
2023/11/04 08:49:21;;;;;;;0.10;0.10;;;;;;;10.28;77.64;96104.94;7376363;19;20022;-56
2023/11/04 08:51:47;;;;;;;0.10;0.10;;;;;;;10.31;77.79;96109.88;7370332;19;20086;-56
2023/11/04 08:54:13;;;;;;;0.10;0.10;;;;;;;10.44;77.66;96115.59;7371426;19;20525;-58
2023/11/04 08:56:39;;;;;;;0.10;0.10;;;;;;;10.38;77.82;96097.88;7365413;19;20358;-59
2023/11/04 08:59:04;;;;;;;0.10;0.10;;;;;;;10.49;77.87;96113.34;7367161;19;20010;-58
2023/11/04 09:01:30;;;;;;;0.10;0.10;;;;;;;10.50;77.56;96104.56;7364461;19;20017;-58
2023/11/04 09:03:55;;;;;;;0.00;0.00;;;;;;;10.52;77.91;96113.03;7363043;19;20465;-58
2023/11/04 09:06:24;;;;;;;0.10;0.10;;;;;;;10.57;77.69;96103.00;7364504;19;20642;-57
2023/11/04 09:08:49;;;;;;;0.03;0.03;;;;;;;10.57;77.51;96099.56;7364341;19;20034;-58
2023/11/04 09:11:16;;;;;;;0.00;0.00;;;;;;;10.57;77.51;96100.38;7360193;19;20344;-57
2023/11/04 09:13:42;;;;;;;0.10;0.10;;;;;;;10.61;77.84;96096.50;7365737;19;20014;-58
2023/11/04 09:16:09;;;;;;;0.10;0.10;;;;;;;10.62;77.88;96095.53;7364534;19;21629;-57
2023/11/04 09:18:37;;;;;;;0.10;0.10;;;;;;;10.60;77.45;96083.63;7366259;19;20037;-58
2023/11/04 09:21:03;;;;;;;0.10;0.10;;;;;;;10.65;77.54;96087.44;7365307;19;20347;-58
2023/11/04 09:23:29;;;;;;;0.10;0.10;;;;;;;10.59;77.74;96077.59;7369185;19;20015;-56
2023/11/04 09:25:54;;;;;;;0.10;0.10;;;;;;;10.70;77.38;96088.78;7368171;19;20007;-58
2023/11/04 09:28:20;;;;;;;0.10;0.10;;;;;;;10.71;77.54;96090.41;7364624;19;20010;-58
2023/11/04 09:30:46;;;;;;;0.10;0.10;;;;;;;10.72;77.87;96092.06;7346619;19;21010;-58
2023/11/04 09:33:12;;;;;;;0.10;0.10;;;;;;;10.67;77.75;96073.41;7345975;19;20089;-58
2023/11/04 09:35:37;;;;;;;0.08;0.08;;;;;;;10.71;77.87;96091.22;7358357;19;19999;-56
2023/11/04 09:38:04;;;;;;;0.10;0.10;;;;;;;10.75;77.47;96092.59;7367014;19;20038;-57
2023/11/04 09:40:30;;;;;;;0.10;0.10;;;;;;;10.76;77.39;96082.97;7359529;19;20467;-57
2023/11/04 09:42:57;;;;;;;0.10;0.10;;;;;;;10.73;77.81;96083.25;7362339;19;20010;-58
2023/11/04 09:45:24;;;;;;;0.10;0.10;;;;;;;10.77;77.72;96090.63;7369845;19;20026;-58
2023/11/04 09:47:50;;;;;;;0.10;0.10;;;;;;;10.76;77.85;96089.00;7364403;19;20021;-57
2023/11/04 09:50:16;;;;;;;0.00;0.00;;;;;;;10.79;77.51;96093.09;7365994;19;20010;-58
2023/11/04 09:52:48;;;;;;;0.10;0.10;;;;;;;10.82;77.85;96087.56;7358993;19;20959;-59
2023/11/04 09:55:16;;;;;;;0.00;0.00;;;;;;;10.82;77.60;96087.56;7365929;19;20003;-58
2023/11/04 09:57:42;;;;;;;0.10;0.10;;;;;;;10.83;77.83;96102.25;7362780;19;20036;-57
2023/11/04 10:00:08;;;;;;;0.10;0.10;;;;;;;10.82;77.66;96098.84;7361619;19;20455;-57
2023/11/04 10:02:34;;;;;;;0.10;0.10;;;;;;;10.86;77.63;96078.50;7357498;19;20032;-58
2023/11/04 10:05:00;;;;;;;0.10;0.10;;;;;;;10.87;77.92;96074.91;7364745;19;20018;-57
2023/11/04 10:07:26;;;;;;;0.10;0.10;;;;;;;10.89;77.91;96072.94;7363591;19;20248;-55
2023/11/04 10:09:53;;;;;;;0.10;0.10;;;;;;;10.91;77.74;96071.03;7365229;19;20002;-58
2023/11/04 10:12:20;;;;;;;0.03;0.03;;;;;;;10.94;77.62;96068.09;7368106;19;20613;-58
2023/11/04 10:14:46;;;;;;;0.00;0.00;;;;;;;10.97;77.49;96070.44;7353056;19;20526;-58
2023/11/04 10:17:12;;;;;;;0.10;0.10;;;;;;;10.97;77.65;96065.19;7364979;19;20554;-58
2023/11/04 10:19:37;;;;;;;0.10;0.10;;;;;;;11.04;77.88;96063.63;7362811;19;20006;-56
2023/11/04 10:22:03;;;;;;;0.10;0.10;;;;;;;11.07;77.64;96065.94;7366796;19;20018;-58
2023/11/04 10:24:29;;;;;;;0.03;0.03;;;;;;;11.14;77.83;96071.38;7360165;19;20070;-58
2023/11/04 10:26:56;;;;;;;0.10;0.10;;;;;;;11.11;77.42;96064.66;7360825;19;20015;-58
2023/11/04 10:29:21;;;;;;;0.10;0.10;;;;;;;11.12;77.68;96058.47;7363755;19;20669;-58
2023/11/04 10:31:48;;;;;;;0.10;0.10;;;;;;;11.24;77.47;96071.28;7362520;19;20007;-58
2023/11/04 10:34:15;;;;;;;0.10;0.10;;;;;;;11.27;77.18;96071.78;7334155;19;20014;-58
2023/11/04 10:36:44;;;;;;;0.10;0.10;;;;;;;11.30;77.38;96075.88;7365547;19;20023;-59
2023/11/04 10:39:11;;;;;;;0.10;0.10;;;;;;;11.34;77.18;96074.59;7353598;19;20049;-57
2023/11/04 10:41:55;;;;;;;0.10;0.10;;;;;;;11.36;77.35;96075.28;7364420;19;20928;-58
2023/11/04 10:44:35;;;;;;;0.10;0.10;;;;;;;11.41;77.42;96062.59;7361199;19;20428;-57
2023/11/04 10:47:16;;;;;;;0.10;0.10;;;;;;;11.41;77.38;96063.41;7361818;19;20014;-59
2023/11/04 10:49:54;;;;;;;0.00;0.00;;;;;;;11.50;77.42;96060.84;7361147;19;20014;-57
2023/11/04 10:52:22;;;;;;;0.10;0.10;;;;;;;11.49;77.28;96054.78;7359915;19;20011;-59
2023/11/04 10:55:00;;;;;;;0.10;0.10;;;;;;;11.58;77.26;96053.06;7359705;19;20002;-58
2023/11/04 10:57:42;;;;;;;0.10;0.10;;;;;;;11.59;76.99;96047.66;7359053;19;20453;-58
2023/11/04 11:00:26;;;;;;;0.00;0.00;;;;;;;11.69;77.01;96048.38;7361094;19;20497;-57
2023/11/04 11:02:52;;;;;;;0.10;0.10;;;;;;;11.68;77.20;96049.34;7361578;19;20022;-58
2023/11/04 11:05:23;;;;;;;0.10;0.10;;;;;;;11.76;77.12;96050.34;7359717;19;20011;-59
2023/11/04 11:07:49;;;;;;;0.00;0.00;;;;;;;11.80;77.13;96041.22;7354472;19;20772;-56
2023/11/04 11:10:19;;;;;;;0.10;0.10;;;;;;;11.80;76.87;96030.78;7354874;19;20007;-58
2023/11/04 11:13:03;;;;;;;0.10;0.10;;;;;;;11.95;76.79;96029.25;7360435;19;20014;-58
2023/11/04 11:15:30;;;;;;;0.10;0.10;;;;;;;11.97;76.59;96032.53;7360072;19;20046;-59
2023/11/04 11:17:59;;;;;;;0.10;0.10;;;;;;;12.04;76.62;96017.03;7357213;19;20019;-58
2023/11/04 11:20:27;;;;;;;0.10;0.10;;;;;;;12.15;76.93;96012.31;7360512;19;20094;-59
2023/11/04 11:22:57;;;;;;;0.10;0.10;;;;;;;12.26;76.57;96010.38;7352075;19;20049;-57
2023/11/04 11:25:49;;;;;;;0.00;0.00;;;;;;;12.41;76.58;96016.63;7363226;19;20857;-59
2023/11/04 11:28:21;;;;;;;0.10;0.10;;;;;;;12.39;76.27;95989.81;7359771;19;20510;-58
2023/11/04 11:30:57;;;;;;;0.10;0.10;;;;;;;12.64;76.01;96004.56;7354908;19;20588;-58
2023/11/04 11:33:27;;;;;;;0.15;0.15;;;;;;;12.76;75.71;96001.59;7361733;19;20011;-58